Time;durP1;ratioP1;P1;durP2;ratioP2;P2;SDS_P1;SDS_P2;PMS_P1;PMS_P2;Temp;Humidity;BMP_temperature;BMP_pressure;BME280_temperature;BME280_humidity;BME280_pressure;Samples;Min_cycle;Max_cycle;Signal;HPM_P1;HPM_P2
2023/05/14 00:01:35;;;;;;;4.43;2.17;;;15.20;91.80;;;;;;4994305;28;20466;-72
2023/05/14 00:04:02;;;;;;;3.70;2.08;;;15.20;91.70;;;;;;5011481;28;20057;-73
2023/05/14 00:06:27;;;;;;;3.30;2.40;;;15.20;92.00;;;;;;5008642;28;20065;-73
2023/05/14 00:08:53;;;;;;;3.53;2.28;;;15.20;92.10;;;;;;4993612;28;20430;-73
2023/05/14 00:11:19;;;;;;;4.28;2.78;;;15.10;92.30;;;;;;4978410;28;20425;-73
2023/05/14 00:13:46;;;;;;;3.63;2.30;;;15.10;92.30;;;;;;5015580;28;20058;-73
2023/05/14 00:16:12;;;;;;;4.65;2.50;;;15.10;92.30;;;;;;5010649;28;20132;-73
2023/05/14 00:18:37;;;;;;;3.67;2.67;;;15.00;92.60;;;;;;4989643;28;20045;-73
2023/05/14 00:21:03;;;;;;;3.38;2.40;;;14.90;92.60;;;;;;4997917;28;20053;-73
2023/05/14 00:23:29;;;;;;;3.53;2.75;;;14.90;92.90;;;;;;4991456;28;20054;-73
2023/05/14 00:25:55;;;;;;;4.43;2.83;;;14.90;93.10;;;;;;5023867;28;20050;-73
2023/05/14 00:28:20;;;;;;;4.45;2.70;;;14.90;93.30;;;;;;5011282;28;20107;-73
2023/05/14 00:30:46;;;;;;;3.90;2.97;;;14.90;93.50;;;;;;5034516;28;20050;-73
2023/05/14 00:33:12;;;;;;;4.32;2.70;;;14.80;93.60;;;;;;5020566;28;20049;-73
2023/05/14 00:35:37;;;;;;;3.97;3.00;;;14.70;93.70;;;;;;5001209;28;20054;-73
2023/05/14 00:38:03;;;;;;;4.40;3.10;;;14.70;93.80;;;;;;5034077;28;20119;-73
2023/05/14 00:40:29;;;;;;;4.75;2.67;;;14.70;94.10;;;;;;4991652;28;20110;-73
2023/05/14 00:42:55;;;;;;;4.63;2.80;;;14.60;94.20;;;;;;4995359;28;20373;-73
2023/05/14 00:45:21;;;;;;;4.22;3.20;;;14.60;94.30;;;;;;5014001;28;20064;-73
2023/05/14 00:47:50;;;;;;;6.05;3.40;;;14.60;94.40;;;;;;4996978;28;20092;-73
2023/05/14 00:50:16;;;;;;;5.70;3.05;;;14.60;94.60;;;;;;4998592;28;20192;-73
2023/05/14 00:52:41;;;;;;;5.20;3.33;;;14.50;94.50;;;;;;4987193;28;20128;-73
2023/05/14 00:55:11;;;;;;;4.68;3.22;;;14.50;94.60;;;;;;5024768;28;20046;-72
2023/05/14 00:57:37;;;;;;;5.68;3.30;;;14.50;94.90;;;;;;5011202;28;20045;-73
2023/05/14 01:00:05;;;;;;;4.70;3.35;;;14.40;95.00;;;;;;4979489;28;20061;-73
2023/05/14 01:02:31;;;;;;;6.87;3.40;;;14.40;94.90;;;;;;4991623;28;20081;-73
2023/05/14 01:04:58;;;;;;;4.90;3.40;;;14.40;95.30;;;;;;4993656;28;20498;-72
2023/05/14 01:08:09;;;;;;;4.05;2.90;;;14.20;95.40;;;;;;4996623;28;20064;-73
2023/05/14 01:10:48;;;;;;;4.10;3.40;;;14.20;95.60;;;;;;4986849;28;20050;-72
2023/05/14 01:13:32;;;;;;;7.65;3.38;;;14.20;95.60;;;;;;4968833;28;20080;-73
2023/05/14 01:15:58;;;;;;;3.90;3.17;;;14.10;95.80;;;;;;4996752;28;20383;-73
2023/05/14 01:18:24;;;;;;;4.70;3.08;;;14.00;95.90;;;;;;4974897;28;20038;-73
2023/05/14 01:20:51;;;;;;;4.32;3.13;;;14.00;96.10;;;;;;4997720;28;20674;-72
2023/05/14 01:23:17;;;;;;;4.40;3.38;;;14.00;96.10;;;;;;4989226;28;20046;-73
2023/05/14 01:25:42;;;;;;;4.57;3.08;;;13.90;96.30;;;;;;4997956;28;20520;-73
2023/05/14 01:28:18;;;;;;;4.93;3.35;;;13.90;96.40;;;;;;5014887;28;20057;-73
2023/05/14 01:30:47;;;;;;;6.35;3.40;;;13.90;96.60;;;;;;5008930;28;20053;-72
2023/05/14 01:33:14;;;;;;;4.53;3.50;;;13.80;96.70;;;;;;5013887;28;20473;-73
2023/05/14 01:35:40;;;;;;;5.10;2.97;;;13.70;97.00;;;;;;5014425;28;20041;-73
2023/05/14 01:38:08;;;;;;;4.72;3.30;;;13.80;97.10;;;;;;4992621;28;20043;-73
2023/05/14 01:40:33;;;;;;;5.97;2.97;;;13.80;97.10;;;;;;5010724;28;20478;-73
2023/05/14 01:43:00;;;;;;;4.38;3.53;;;13.80;97.20;;;;;;5008166;28;20046;-73
2023/05/14 01:45:25;;;;;;;4.63;2.88;;;13.70;97.30;;;;;;4997298;28;20041;-72
2023/05/14 01:47:51;;;;;;;4.60;3.58;;;13.60;97.80;;;;;;5017012;28;20050;-73
2023/05/14 01:50:17;;;;;;;5.13;3.83;;;13.60;97.70;;;;;;4994573;28;20109;-73
2023/05/14 01:52:43;;;;;;;6.10;4.00;;;13.50;97.90;;;;;;4997495;28;20046;-73
2023/05/14 01:55:09;;;;;;;4.85;3.63;;;13.40;98.20;;;;;;4981241;28;20459;-73
2023/05/14 01:57:35;;;;;;;5.20;3.95;;;13.40;98.40;;;;;;5011889;28;20431;-73
2023/05/14 02:00:01;;;;;;;4.05;3.20;;;13.50;98.30;;;;;;5005531;28;20132;-72
2023/05/14 02:02:26;;;;;;;5.80;4.03;;;13.50;98.30;;;;;;4997839;28;20053;-72
2023/05/14 02:04:52;;;;;;;5.72;3.90;;;13.40;98.40;;;;;;4997283;28;20072;-73
2023/05/14 02:07:18;;;;;;;5.10;3.63;;;13.40;98.50;;;;;;4991083;28;20045;-73
2023/05/14 02:09:44;;;;;;;3.92;3.53;;;13.40;98.50;;;;;;5010417;28;20060;-72
2023/05/14 02:12:12;;;;;;;5.00;4.03;;;13.40;98.50;;;;;;4997001;28;20045;-73
2023/05/14 02:14:38;;;;;;;5.53;3.47;;;13.40;98.60;;;;;;4997448;28;20061;-72
2023/05/14 02:17:03;;;;;;;5.68;3.67;;;13.30;98.40;;;;;;5013708;28;20049;-73
2023/05/14 02:19:29;;;;;;;6.55;3.38;;;13.30;98.40;;;;;;5008678;28;20117;-72
2023/05/14 02:21:55;;;;;;;4.57;3.75;;;13.30;98.60;;;;;;5009647;28;20056;-73
2023/05/14 02:24:21;;;;;;;5.03;3.63;;;13.10;98.80;;;;;;4998057;28;20461;-73
2023/05/14 02:26:46;;;;;;;3.63;3.05;;;13.10;99.00;;;;;;5013065;28;20049;-72
2023/05/14 02:29:12;;;;;;;6.55;3.38;;;13.10;99.20;;;;;;5013541;28;20050;-73
2023/05/14 02:31:38;;;;;;;4.53;3.63;;;13.20;99.20;;;;;;5013352;28;20105;-73
2023/05/14 02:34:05;;;;;;;7.18;3.90;;;13.10;99.30;;;;;;5019064;28;20057;-73
2023/05/14 02:36:31;;;;;;;4.45;3.28;;;13.10;99.40;;;;;;4980517;28;20050;-72
2023/05/14 02:38:57;;;;;;;5.18;3.47;;;13.10;99.60;;;;;;5034239;28;20522;-72
2023/05/14 02:41:23;;;;;;;5.55;3.80;;;13.00;99.60;;;;;;5011721;28;20112;-73
2023/05/14 02:43:49;;;;;;;5.40;3.80;;;13.00;99.60;;;;;;5001420;28;20034;-72
2023/05/14 02:46:15;;;;;;;5.43;3.85;;;12.90;99.60;;;;;;4974024;28;20132;-72
2023/05/14 02:48:40;;;;;;;5.45;3.80;;;12.90;99.70;;;;;;5010307;28;20707;-73
2023/05/14 02:51:06;;;;;;;5.10;3.83;;;12.90;99.80;;;;;;5003133;28;20046;-73
2023/05/14 02:53:32;;;;;;;6.22;3.78;;;12.80;99.80;;;;;;5015168;28;20041;-72
2023/05/14 02:55:58;;;;;;;6.32;3.92;;;12.80;99.90;;;;;;5019850;28;20069;-73
2023/05/14 02:58:24;;;;;;;5.65;4.22;;;12.80;99.90;;;;;;5006238;28;20108;-72
2023/05/14 03:00:50;;;;;;;5.53;4.00;;;12.80;99.90;;;;;;5008020;28;20046;-73
2023/05/14 03:03:17;;;;;;;6.60;4.03;;;12.70;99.90;;;;;;4997928;28;20471;-72
2023/05/14 03:05:43;;;;;;;5.47;4.10;;;12.70;99.90;;;;;;5012389;28;20111;-73
2023/05/14 03:08:08;;;;;;;6.95;3.83;;;12.70;99.90;;;;;;5005819;28;20050;-72
2023/05/14 03:10:34;;;;;;;5.85;3.80;;;12.60;99.90;;;;;;4996515;28;20617;-73
2023/05/14 03:13:00;;;;;;;7.13;3.90;;;12.60;99.90;;;;;;4995451;28;20046;-73
2023/05/14 03:15:26;;;;;;;5.68;3.92;;;12.60;99.90;;;;;;4993066;28;20058;-72
2023/05/14 03:17:52;;;;;;;5.70;4.13;;;12.60;99.90;;;;;;5007454;28;20038;-72
2023/05/14 03:20:18;;;;;;;7.55;4.45;;;12.50;99.90;;;;;;5012221;28;20049;-73
2023/05/14 03:22:44;;;;;;;5.15;3.83;;;12.50;99.90;;;;;;4996058;28;20077;-72
2023/05/14 03:25:09;;;;;;;6.50;3.47;;;12.50;99.90;;;;;;5012964;28;20069;-73
2023/05/14 03:27:35;;;;;;;6.25;4.65;;;12.50;99.90;;;;;;4996158;28;20041;-73
2023/05/14 03:30:01;;;;;;;6.05;4.10;;;12.50;99.90;;;;;;5021757;28;20056;-73
2023/05/14 03:32:26;;;;;;;7.35;4.15;;;12.40;99.90;;;;;;5012437;28;20057;-72
2023/05/14 03:34:52;;;;;;;5.07;3.65;;;12.40;99.90;;;;;;4961957;28;20052;-72
2023/05/14 03:37:18;;;;;;;5.30;3.90;;;12.40;99.90;;;;;;5006141;28;20776;-72
2023/05/14 03:39:44;;;;;;;4.90;4.03;;;12.30;99.90;;;;;;4995696;28;20060;-72
2023/05/14 03:42:09;;;;;;;4.28;3.80;;;12.30;99.90;;;;;;5008444;28;20080;-72
2023/05/14 03:44:35;;;;;;;5.18;4.10;;;12.30;99.90;;;;;;5010117;28;20053;-72
2023/05/14 03:47:01;;;;;;;5.88;4.43;;;12.30;99.90;;;;;;4998923;28;20803;-73
2023/05/14 03:49:27;;;;;;;6.22;4.20;;;12.30;99.90;;;;;;4987645;28;20041;-72
2023/05/14 03:51:53;;;;;;;6.22;4.03;;;12.30;99.90;;;;;;4977896;28;20045;-72
2023/05/14 03:54:20;;;;;;;4.85;4.03;;;12.20;99.90;;;;;;5019716;28;20538;-72
2023/05/14 03:56:45;;;;;;;5.63;4.60;;;12.20;99.90;;;;;;4985536;28;20074;-72
2023/05/14 03:59:11;;;;;;;5.50;4.53;;;12.20;99.90;;;;;;5007154;28;20534;-72
2023/05/14 04:01:37;;;;;;;6.10;4.68;;;12.10;99.90;;;;;;5012273;28;20565;-72
2023/05/14 04:04:03;;;;;;;6.95;4.32;;;12.10;99.90;;;;;;5012608;28;20045;-72
2023/05/14 04:06:28;;;;;;;7.13;4.60;;;12.10;99.90;;;;;;4994990;28;20089;-72
2023/05/14 04:08:54;;;;;;;6.93;4.40;;;12.00;99.90;;;;;;5010999;28;20467;-72
2023/05/14 04:11:20;;;;;;;5.45;4.35;;;12.00;99.90;;;;;;4992364;28;20057;-72
2023/05/14 04:13:46;;;;;;;5.65;4.68;;;12.00;99.90;;;;;;5005004;28;20518;-72
2023/05/14 04:16:12;;;;;;;7.18;4.47;;;11.90;99.90;;;;;;5021548;28;20050;-72
2023/05/14 04:18:38;;;;;;;10.50;4.80;;;11.90;99.90;;;;;;5020876;28;20045;-72
2023/05/14 04:21:04;;;;;;;5.78;4.40;;;12.00;99.90;;;;;;5017140;28;20053;-72
2023/05/14 04:23:30;;;;;;;5.82;4.50;;;12.00;99.90;;;;;;5026624;28;20046;-72
2023/05/14 04:25:57;;;;;;;5.35;4.30;;;12.00;99.90;;;;;;5000275;28;20394;-72
2023/05/14 04:28:22;;;;;;;8.77;5.20;;;12.00;99.90;;;;;;5016866;28;20049;-73
2023/05/14 04:30:48;;;;;;;5.88;4.70;;;12.10;99.90;;;;;;5021912;28;20131;-72
2023/05/14 04:33:14;;;;;;;6.47;4.88;;;12.00;99.90;;;;;;4999314;28;20050;-72
2023/05/14 04:35:40;;;;;;;7.03;4.95;;;12.00;99.90;;;;;;5016041;28;20060;-72
2023/05/14 04:38:06;;;;;;;6.15;4.85;;;12.00;99.90;;;;;;4985581;28;20037;-73
2023/05/14 04:40:31;;;;;;;5.90;4.60;;;12.10;99.90;;;;;;4978261;28;20111;-72
2023/05/14 04:42:57;;;;;;;7.45;4.60;;;12.10;99.90;;;;;;4996826;28;20534;-72
2023/05/14 04:45:23;;;;;;;9.50;4.75;;;12.20;99.90;;;;;;5029933;28;20049;-73
2023/05/14 04:47:49;;;;;;;8.50;5.63;;;12.20;99.90;;;;;;5014539;28;20049;-72
2023/05/14 04:50:15;;;;;;;6.15;4.55;;;12.20;99.90;;;;;;5010106;28;20997;-72
2023/05/14 04:52:41;;;;;;;6.82;5.15;;;12.20;99.90;;;;;;4992858;28;20042;-72
2023/05/14 04:55:07;;;;;;;8.38;5.22;;;12.20;99.90;;;;;;5008837;28;20049;-73
2023/05/14 04:57:33;;;;;;;7.65;5.03;;;12.20;99.90;;;;;;4998041;28;20087;-72
2023/05/14 04:59:58;;;;;;;7.70;5.53;;;12.20;99.90;;;;;;5013944;28;20081;-73
2023/05/14 05:02:24;;;;;;;6.60;5.13;;;12.20;99.90;;;;;;4998714;28;20050;-72
2023/05/14 05:04:50;;;;;;;7.13;5.60;;;12.20;99.90;;;;;;5009841;28;20057;-72
2023/05/14 05:07:15;;;;;;;5.97;4.93;;;12.30;99.90;;;;;;5007628;28;20057;-72
2023/05/14 05:09:42;;;;;;;8.48;5.20;;;12.30;99.90;;;;;;5011576;28;20133;-72
2023/05/14 05:12:08;;;;;;;6.47;4.65;;;12.30;99.90;;;;;;4980312;28;20390;-72
2023/05/14 05:14:33;;;;;;;6.65;5.32;;;12.40;99.90;;;;;;4998950;28;20062;-72
2023/05/14 05:16:59;;;;;;;8.48;5.70;;;12.40;99.90;;;;;;5015342;28;20048;-72
2023/05/14 05:19:25;;;;;;;6.97;5.38;;;12.40;99.90;;;;;;5017933;28;20370;-72
2023/05/14 05:21:50;;;;;;;6.65;5.05;;;12.50;99.90;;;;;;5014824;28;20057;-72
2023/05/14 05:24:16;;;;;;;7.85;4.88;;;12.50;99.90;;;;;;5004035;28;20132;-73
2023/05/14 05:26:42;;;;;;;5.68;4.97;;;12.50;99.90;;;;;;4982274;28;20056;-72
2023/05/14 05:29:08;;;;;;;6.40;5.28;;;12.50;99.90;;;;;;5014714;28;20041;-73
2023/05/14 05:31:33;;;;;;;7.28;5.25;;;12.60;99.90;;;;;;5018029;28;20100;-73
2023/05/14 05:33:59;;;;;;;7.68;5.75;;;12.60;99.90;;;;;;5014908;28;20175;-73
2023/05/14 05:36:25;;;;;;;7.53;5.68;;;12.60;99.90;;;;;;5013716;28;20076;-72
2023/05/14 05:38:51;;;;;;;6.93;5.97;;;12.60;99.90;;;;;;5008149;28;20052;-73
2023/05/14 05:41:17;;;;;;;7.22;5.55;;;12.60;99.90;;;;;;5010380;28;20052;-73
2023/05/14 05:43:44;;;;;;;9.10;5.57;;;12.60;99.90;;;;;;4981982;28;20046;-73
2023/05/14 05:46:10;;;;;;;6.97;5.68;;;12.70;99.90;;;;;;5014587;28;20049;-73
2023/05/14 05:48:37;;;;;;;7.22;5.93;;;12.70;99.90;;;;;;5007782;28;20403;-73
2023/05/14 05:51:03;;;;;;;7.70;5.38;;;12.80;99.90;;;;;;5026718;28;20069;-72
2023/05/14 05:53:29;;;;;;;6.93;5.18;;;12.80;99.90;;;;;;5009404;28;20119;-72
2023/05/14 05:55:54;;;;;;;7.30;5.43;;;12.90;99.90;;;;;;4997499;28;20042;-72
2023/05/14 05:58:20;;;;;;;7.03;5.45;;;12.90;99.90;;;;;;5011527;28;20104;-73
2023/05/14 06:00:46;;;;;;;7.28;5.30;;;12.90;99.90;;;;;;5006786;28;20053;-73
2023/05/14 06:03:12;;;;;;;6.05;5.25;;;13.00;99.90;;;;;;5016276;28;20065;-73
2023/05/14 06:05:38;;;;;;;7.00;5.43;;;13.00;99.90;;;;;;5013679;28;20056;-74
2023/05/14 06:08:04;;;;;;;6.13;5.53;;;13.00;99.90;;;;;;5007170;28;20053;-74
2023/05/14 06:10:30;;;;;;;7.57;5.35;;;13.10;99.90;;;;;;5019274;28;20053;-73
2023/05/14 06:12:55;;;;;;;9.25;5.15;;;13.20;99.90;;;;;;5029926;28;20623;-73
2023/05/14 06:15:21;;;;;;;7.40;5.97;;;13.20;99.90;;;;;;5019822;28;20065;-73
2023/05/14 06:17:47;;;;;;;8.20;6.07;;;13.30;99.90;;;;;;5012662;28;20050;-73
2023/05/14 06:20:13;;;;;;;7.60;5.65;;;13.30;99.90;;;;;;4997773;28;20116;-73
2023/05/14 06:22:39;;;;;;;7.63;5.22;;;13.40;99.90;;;;;;5000042;28;20050;-73
2023/05/14 06:25:05;;;;;;;7.32;6.05;;;13.40;99.90;;;;;;5010734;28;20050;-73
2023/05/14 06:27:30;;;;;;;7.55;5.45;;;13.50;99.90;;;;;;4995030;28;20422;-73
2023/05/14 06:29:56;;;;;;;9.07;5.97;;;13.50;99.90;;;;;;5012921;28;20049;-73
2023/05/14 06:32:22;;;;;;;6.80;5.78;;;13.60;99.90;;;;;;4996546;28;20497;-73
2023/05/14 06:34:48;;;;;;;10.82;6.05;;;13.60;99.90;;;;;;5006832;28;20056;-73
2023/05/14 06:37:13;;;;;;;7.57;5.97;;;13.70;99.90;;;;;;4995322;28;20081;-73
2023/05/14 06:39:42;;;;;;;6.80;5.45;;;13.70;99.90;;;;;;5013390;28;20124;-73
2023/05/14 06:42:08;;;;;;;8.55;5.88;;;13.70;99.90;;;;;;5006378;28;20060;-73
2023/05/14 06:44:35;;;;;;;8.98;5.78;;;13.80;99.90;;;;;;5023082;28;20045;-73
2023/05/14 06:47:01;;;;;;;6.80;5.57;;;13.80;99.90;;;;;;4993902;28;20046;-73
2023/05/14 06:49:27;;;;;;;8.20;5.47;;;13.90;99.90;;;;;;4990648;28;20056;-71
2023/05/14 06:51:53;;;;;;;7.57;5.45;;;13.90;99.90;;;;;;4992643;28;20069;-71
2023/05/14 06:54:19;;;;;;;7.20;5.70;;;14.00;99.90;;;;;;5013646;28;20037;-71
2023/05/14 06:56:45;;;;;;;7.57;5.68;;;14.00;99.90;;;;;;5014689;28;20474;-71
2023/05/14 06:59:11;;;;;;;7.68;5.68;;;14.10;99.90;;;;;;4996039;28;20514;-71
2023/05/14 07:01:37;;;;;;;7.60;5.45;;;14.10;99.90;;;;;;5010866;28;20042;-71
2023/05/14 07:04:02;;;;;;;6.65;5.95;;;14.20;99.90;;;;;;5012736;28;20041;-70
2023/05/14 07:06:28;;;;;;;7.70;5.60;;;14.20;99.90;;;;;;5012776;28;20092;-71
2023/05/14 07:08:54;;;;;;;8.27;5.50;;;14.30;99.90;;;;;;5005871;28;20049;-71
2023/05/14 07:11:21;;;;;;;7.43;5.40;;;14.40;99.90;;;;;;5010635;28;20060;-72
2023/05/14 07:13:46;;;;;;;6.88;5.47;;;14.40;99.90;;;;;;5007633;28;20202;-72
2023/05/14 07:16:12;;;;;;;6.07;5.43;;;14.50;99.90;;;;;;5004176;28;20125;-72
2023/05/14 07:18:38;;;;;;;9.15;5.40;;;14.60;99.90;;;;;;5005083;28;20112;-76
2023/05/14 07:21:05;;;;;;;8.52;5.72;;;14.70;99.90;;;;;;5039927;28;20089;-76
2023/05/14 07:23:32;;;;;;;6.20;5.38;;;14.80;99.90;;;;;;5023803;28;20132;-76
2023/05/14 07:25:58;;;;;;;7.32;5.30;;;14.90;99.90;;;;;;4997214;28;20041;-77
2023/05/14 07:28:24;;;;;;;6.80;5.35;;;15.00;99.90;;;;;;4996509;28;20574;-77
2023/05/14 07:30:49;;;;;;;8.60;5.43;;;15.00;99.90;;;;;;4996194;28;20447;-74
2023/05/14 07:33:15;;;;;;;7.88;5.05;;;15.10;99.90;;;;;;4997109;28;20060;-73
2023/05/14 07:35:41;;;;;;;6.05;4.70;;;15.10;99.90;;;;;;5004308;28;20050;-73
2023/05/14 07:38:08;;;;;;;8.48;5.22;;;15.30;99.90;;;;;;4974175;28;20065;-72
2023/05/14 07:40:34;;;;;;;10.30;5.07;;;15.40;99.90;;;;;;4994569;28;20725;-73
2023/05/14 07:42:59;;;;;;;7.15;4.55;;;15.50;99.90;;;;;;4992096;28;20041;-73
2023/05/14 07:45:25;;;;;;;7.25;4.85;;;15.50;99.90;;;;;;5014388;28;20153;-77
2023/05/14 07:47:51;;;;;;;6.57;5.30;;;15.60;99.90;;;;;;5008640;28;20375;-77
2023/05/14 07:50:17;;;;;;;7.72;4.45;;;15.70;99.90;;;;;;5006206;28;20089;-75
2023/05/14 07:52:44;;;;;;;5.95;4.78;;;15.80;99.90;;;;;;4975743;28;20056;-75
2023/05/14 07:55:10;;;;;;;6.10;4.55;;;15.80;99.90;;;;;;5011483;28;20073;-74
2023/05/14 07:57:37;;;;;;;6.30;4.90;;;15.90;99.90;;;;;;5012613;28;20042;-73
2023/05/14 08:00:06;;;;;;;6.82;4.72;;;15.90;99.90;;;;;;5045171;28;20538;-76
2023/05/14 08:02:32;;;;;;;5.90;4.35;;;16.00;99.90;;;;;;5000581;28;20443;-76
2023/05/14 08:04:58;;;;;;;6.97;5.00;;;16.00;99.90;;;;;;4994799;28;20132;-77
2023/05/14 08:07:24;;;;;;;8.93;4.80;;;16.10;99.90;;;;;;4963476;28;20466;-76
2023/05/14 08:09:50;;;;;;;6.38;4.72;;;16.20;99.90;;;;;;4997388;28;20045;-74
2023/05/14 08:12:16;;;;;;;6.68;4.88;;;16.20;99.90;;;;;;4979800;28;20053;-74
2023/05/14 08:14:42;;;;;;;6.78;4.30;;;16.30;99.90;;;;;;5027429;28;20073;-74
2023/05/14 08:17:07;;;;;;;4.80;3.95;;;16.30;99.90;;;;;;5008604;28;20386;-74
2023/05/14 08:19:33;;;;;;;5.22;3.67;;;16.40;99.90;;;;;;5003791;28;20057;-74
2023/05/14 08:21:59;;;;;;;5.70;3.67;;;16.40;99.90;;;;;;4983859;28;20047;-75
2023/05/14 08:24:25;;;;;;;6.75;3.97;;;16.50;99.90;;;;;;4988978;28;20826;-74
2023/05/14 08:26:51;;;;;;;6.55;3.70;;;16.50;99.90;;;;;;5005885;28;20667;-74
2023/05/14 08:29:17;;;;;;;6.53;3.65;;;16.50;99.30;;;;;;4995682;28;20120;-75
2023/05/14 08:31:42;;;;;;;5.13;3.50;;;16.60;99.10;;;;;;4996050;28;20125;-74
2023/05/14 08:34:08;;;;;;;9.02;3.60;;;16.60;99.40;;;;;;5014159;28;20052;-74
2023/05/14 08:36:34;;;;;;;6.05;3.60;;;16.70;99.20;;;;;;4990519;28;20536;-74
2023/05/14 08:39:00;;;;;;;6.95;3.45;;;16.70;99.60;;;;;;5021256;28;20061;-74
2023/05/14 08:41:25;;;;;;;6.30;3.55;;;16.70;98.00;;;;;;5003454;28;20050;-74
2023/05/14 08:44:06;;;;;;;6.22;3.50;;;16.70;97.30;;;;;;4988310;28;20606;-74
2023/05/14 08:46:32;;;;;;;3.95;2.83;;;16.80;97.20;;;;;;5025795;28;20044;-74
2023/05/14 08:49:07;;;;;;;5.18;3.80;;;16.80;97.40;;;;;;4994581;28;20112;-74
2023/05/14 08:51:34;;;;;;;6.35;3.30;;;16.90;97.10;;;;;;5010787;28;20045;-74
2023/05/14 08:54:01;;;;;;;6.97;3.30;;;16.90;97.50;;;;;;5010025;28;20072;-74
2023/05/14 08:56:26;;;;;;;5.38;3.28;;;17.00;97.60;;;;;;5010663;28;20042;-74
2023/05/14 08:58:52;;;;;;;3.72;2.90;;;17.10;97.60;;;;;;4994633;28;20053;-74
2023/05/14 09:01:18;;;;;;;6.35;3.30;;;17.20;97.40;;;;;;5011691;28;20049;-74
2023/05/14 09:03:44;;;;;;;7.20;4.00;;;17.20;97.30;;;;;;5009967;28;20073;-74
2023/05/14 09:06:11;;;;;;;4.75;3.20;;;17.20;97.00;;;;;;5006447;28;20041;-75
2023/05/14 09:08:37;;;;;;;4.22;2.92;;;17.30;97.50;;;;;;5043058;28;20041;-75
2023/05/14 09:11:03;;;;;;;5.43;3.10;;;17.40;96.70;;;;;;4992557;28;20446;-75
2023/05/14 09:13:29;;;;;;;6.13;3.58;;;17.50;96.10;;;;;;4994605;28;20145;-75
2023/05/14 09:15:55;;;;;;;6.65;3.13;;;17.50;96.20;;;;;;5013043;28;20052;-75
2023/05/14 09:18:21;;;;;;;7.43;3.67;;;17.60;96.20;;;;;;5023935;28;20045;-74
2023/05/14 09:20:47;;;;;;;5.28;3.00;;;17.70;96.00;;;;;;5008207;28;20422;-74
2023/05/14 09:23:13;;;;;;;6.65;3.15;;;17.70;95.30;;;;;;4995121;28;20370;-74
2023/05/14 09:25:39;;;;;;;6.18;3.20;;;17.80;95.60;;;;;;5014437;28;20354;-73
2023/05/14 09:28:07;;;;;;;5.43;2.83;;;17.90;96.10;;;;;;4997162;28;20405;-73
2023/05/14 09:30:33;;;;;;;;;;;18.00;96.20;;;;;;5008604;28;20050;-73
2023/05/14 09:33:00;;;;;;;7.88;3.20;;;18.10;96.10;;;;;;4997966;28;19995;-74
2023/05/14 09:35:26;;;;;;;4.47;3.17;;;18.10;96.00;;;;;;4980291;28;20080;-73
2023/05/14 09:37:52;;;;;;;5.88;3.08;;;18.10;95.80;;;;;;5023340;28;20077;-73
2023/05/14 09:40:19;;;;;;;3.83;2.67;;;18.20;96.10;;;;;;5019777;28;20048;-74
2023/05/14 09:42:45;;;;;;;6.53;3.28;;;18.30;95.70;;;;;;5005653;28;20041;-72
2023/05/14 09:45:11;;;;;;;3.95;2.90;;;18.40;94.90;;;;;;5013362;28;20450;-73
2023/05/14 09:47:39;;;;;;;4.75;3.42;;;18.40;94.60;;;;;;5011255;28;20042;-73
2023/05/14 09:50:05;;;;;;;4.20;3.15;;;18.60;94.80;;;;;;4997668;28;20045;-73
2023/05/14 09:52:31;;;;;;;7.15;3.20;;;18.70;95.20;;;;;;4997539;28;20056;-73
2023/05/14 09:54:57;;;;;;;5.07;3.33;;;18.90;94.20;;;;;;5013995;28;20125;-74
2023/05/14 09:57:23;;;;;;;6.47;3.45;;;19.00;92.90;;;;;;5013317;28;20045;-73
2023/05/14 09:59:49;;;;;;;7.10;3.78;;;19.10;94.20;;;;;;5015076;28;20173;-76
2023/05/14 10:02:25;;;;;;;7.25;3.70;;;19.20;93.00;;;;;;5014408;28;20540;-75
2023/05/14 10:04:52;;;;;;;6.65;3.95;;;19.40;94.00;;;;;;5033870;28;20111;-76
2023/05/14 10:07:22;;;;;;;5.40;3.90;;;19.50;92.70;;;;;;5014026;28;20049;-77
2023/05/14 10:09:50;;;;;;;7.63;3.97;;;19.60;91.20;;;;;;4998511;28;20046;-77
2023/05/14 10:12:16;;;;;;;6.07;3.40;;;19.60;91.80;;;;;;5014524;28;20041;-76
2023/05/14 10:14:44;;;;;;;6.68;3.47;;;19.80;92.50;;;;;;5013822;28;20077;-75
2023/05/14 10:17:16;;;;;;;9.60;3.75;;;19.90;91.30;;;;;;4996524;28;20061;-79
2023/05/14 10:19:48;;;;;;;6.32;3.78;;;20.00;91.90;;;;;;5016388;28;20065;-77
2023/05/14 10:22:14;;;;;;;5.97;4.05;;;20.10;89.20;;;;;;4983383;28;20108;-77
2023/05/14 10:24:40;;;;;;;5.57;3.42;;;20.10;88.40;;;;;;5016721;28;20445;-78
2023/05/14 10:27:06;;;;;;;7.55;3.55;;;20.20;90.90;;;;;;4999982;28;20085;-79
2023/05/14 10:29:43;;;;;;;6.47;3.92;;;20.40;86.70;;;;;;5032602;28;20604;-79
2023/05/14 10:32:08;;;;;;;9.20;3.70;;;20.30;88.40;;;;;;4984699;28;20352;-78
2023/05/14 10:34:37;;;;;;;9.43;3.35;;;20.30;88.50;;;;;;5000217;28;20072;-78
2023/05/14 10:37:06;;;;;;;5.72;3.00;;;20.50;87.20;;;;;;5016046;28;20132;-77
2023/05/14 10:39:57;;;;;;;6.53;3.03;;;20.60;83.20;;;;;;4992965;28;20044;-78
2023/05/14 10:42:24;;;;;;;5.65;2.90;;;20.60;82.70;;;;;;5019649;28;20038;-79
2023/05/14 10:45:00;;;;;;;9.07;3.30;;;20.70;78.10;;;;;;4998325;28;20042;-79
2023/05/14 10:47:26;;;;;;;7.63;2.90;;;20.70;78.80;;;;;;5012950;28;20042;-78
2023/05/14 10:50:00;;;;;;;6.05;2.97;;;20.90;79.30;;;;;;4970459;28;20133;-77
2023/05/14 10:52:27;;;;;;;8.15;2.70;;;20.90;78.30;;;;;;5007639;28;20041;-77
2023/05/14 10:55:00;;;;;;;6.10;2.70;;;21.10;76.10;;;;;;4987283;28;20042;-77
2023/05/14 10:57:32;;;;;;;4.10;2.65;;;21.10;72.30;;;;;;5001984;28;20490;-77
2023/05/14 10:59:59;;;;;;;5.75;2.80;;;21.10;71.70;;;;;;4996521;28;20112;-77
2023/05/14 11:02:38;;;;;;;5.20;2.53;;;21.10;68.20;;;;;;5006146;28;20058;-76
2023/05/14 11:05:05;;;;;;;6.70;2.75;;;20.80;71.70;;;;;;4981881;28;20046;-76
2023/05/14 11:07:37;;;;;;;5.03;2.53;;;20.90;68.80;;;;;;4988772;28;20042;-76
2023/05/14 11:10:03;;;;;;;4.40;3.08;;;20.90;69.80;;;;;;4985392;28;20077;-77
2023/05/14 11:12:29;;;;;;;5.90;3.30;;;20.90;68.40;;;;;;5013448;28;20038;-77
2023/05/14 11:14:58;;;;;;;7.72;3.47;;;21.10;70.80;;;;;;4996731;28;20140;-76
2023/05/14 11:17:25;;;;;;;6.20;3.17;;;21.10;70.00;;;;;;4980458;28;20050;-76
2023/05/14 11:19:51;;;;;;;5.65;2.92;;;21.30;71.90;;;;;;5011764;28;20042;-76
2023/05/14 11:22:17;;;;;;;8.15;3.10;;;21.30;68.60;;;;;;5006905;28;20046;-77
2023/05/14 11:24:43;;;;;;;4.72;3.13;;;21.10;66.80;;;;;;4979068;28;20770;-77
2023/05/14 11:27:09;;;;;;;5.60;2.78;;;21.20;68.90;;;;;;4977645;28;20100;-77
2023/05/14 11:29:36;;;;;;;7.53;3.50;;;21.30;67.90;;;;;;4996116;28;20046;-78
2023/05/14 11:32:04;;;;;;;4.63;2.95;;;21.40;68.30;;;;;;4968157;28;20038;-77
2023/05/14 11:34:29;;;;;;;6.05;3.60;;;21.50;72.80;;;;;;4990048;28;20046;-76
2023/05/14 11:36:55;;;;;;;7.22;3.28;;;21.50;67.00;;;;;;5013640;28;20042;-77
2023/05/14 11:39:21;;;;;;;10.05;3.30;;;21.20;67.00;;;;;;5012858;28;20128;-76
2023/05/14 11:41:47;;;;;;;5.63;3.58;;;21.00;68.90;;;;;;5017169;28;20382;-77
2023/05/14 11:44:15;;;;;;;5.38;3.60;;;21.20;70.70;;;;;;5002669;28;20061;-78
2023/05/14 11:46:52;;;;;;;13.13;3.50;;;21.40;71.20;;;;;;5012416;28;20464;-78
2023/05/14 11:49:21;;;;;;;4.57;3.25;;;21.30;69.70;;;;;;4976040;28;20141;-77
2023/05/14 11:51:48;;;;;;;5.80;3.08;;;21.20;71.20;;;;;;5009026;28;20052;-77
2023/05/14 11:54:13;;;;;;;5.53;3.65;;;21.20;71.00;;;;;;5004766;28;20091;-79
2023/05/14 11:56:39;;;;;;;7.80;3.92;;;21.20;71.20;;;;;;4997055;28;20158;-76
2023/05/14 11:59:05;;;;;;;6.65;4.15;;;21.20;70.70;;;;;;5022951;28;20529;-77
2023/05/14 12:01:37;;;;;;;9.30;3.58;;;21.10;71.30;;;;;;5011284;28;20514;-77
2023/05/14 12:04:03;;;;;;;8.20;3.60;;;21.10;72.90;;;;;;4989523;28;20061;-75
2023/05/14 12:06:30;;;;;;;5.68;3.90;;;21.10;72.30;;;;;;4983207;28;20050;-75
2023/05/14 12:08:57;;;;;;;7.45;3.60;;;21.10;73.20;;;;;;4984934;28;20046;-75
2023/05/14 12:11:22;;;;;;;7.22;3.88;;;21.00;75.20;;;;;;4977592;28;20061;-75
2023/05/14 12:13:48;;;;;;;8.23;3.70;;;21.00;76.70;;;;;;5022893;28;20064;-75
2023/05/14 12:16:16;;;;;;;8.35;3.65;;;21.00;75.80;;;;;;5025283;28;20050;-75
2023/05/14 12:18:42;;;;;;;6.43;3.47;;;21.00;74.60;;;;;;5005963;28;20046;-75
2023/05/14 12:21:10;;;;;;;6.18;3.50;;;20.90;73.60;;;;;;4989829;28;20287;-76
2023/05/14 12:23:37;;;;;;;9.18;3.65;;;20.80;73.90;;;;;;4996155;28;20052;-75
2023/05/14 12:26:07;;;;;;;8.30;3.95;;;20.80;74.90;;;;;;4995466;28;20037;-75
2023/05/14 12:28:33;;;;;;;6.43;3.95;;;20.80;74.40;;;;;;4987267;28;20363;-76
2023/05/14 12:30:59;;;;;;;4.40;3.38;;;20.70;75.20;;;;;;4974583;28;20056;-75
2023/05/14 12:33:25;;;;;;;6.47;3.72;;;20.80;75.50;;;;;;5021063;28;20045;-75
2023/05/14 12:36:00;;;;;;;6.60;3.22;;;20.70;73.20;;;;;;4982879;28;20033;-76
2023/05/14 12:38:27;;;;;;;5.25;3.40;;;20.70;74.60;;;;;;5007067;28;20042;-75
2023/05/14 12:40:52;;;;;;;6.55;3.45;;;20.80;76.70;;;;;;5001214;28;20155;-75
2023/05/14 12:43:18;;;;;;;6.35;3.30;;;20.70;73.90;;;;;;5018994;28;20059;-75
2023/05/14 12:45:44;;;;;;;4.72;3.25;;;20.70;73.10;;;;;;4989925;28;20046;-75